sensor_id;sensor_type;location;lat;lon;timestamp;pressure;altitude;pressure_sealevel;temperature;humidity
77954;BME280;67151;52.544;6.034;2023-07-29T00:00:03;100650;;;24.4;53.7
77954;BME280;67151;52.544;6.034;2023-07-29T00:00:18;100640;;;24.4;53.7
77954;BME280;67151;52.544;6.034;2023-07-29T00:00:33;100650;;;24.4;53.6
77954;BME280;67151;52.544;6.034;2023-07-29T00:00:48;100650;;;24.4;53.7
77954;BME280;67151;52.544;6.034;2023-07-29T00:01:03;100650;;;24.4;53.6
77954;BME280;67151;52.544;6.034;2023-07-29T00:01:18;100650;;;24.4;53.6
77954;BME280;67151;52.544;6.034;2023-07-29T00:01:33;100650;;;24.4;53.7
77954;BME280;67151;52.544;6.034;2023-07-29T00:01:48;100650;;;24.4;53.7
77954;BME280;67151;52.544;6.034;2023-07-29T00:02:03;100650;;;24.4;53.7
77954;BME280;67151;52.544;6.034;2023-07-29T00:02:18;100650;;;24.4;53.7
77954;BME280;67151;52.544;6.034;2023-07-29T00:02:33;100640;;;24.4;53.7
77954;BME280;67151;52.544;6.034;2023-07-29T00:02:48;100640;;;24.4;53.7
77954;BME280;67151;52.544;6.034;2023-07-29T00:03:03;100650;;;24.4;53.7
77954;BME280;67151;52.544;6.034;2023-07-29T00:03:18;100650;;;24.4;53.6
77954;BME280;67151;52.544;6.034;2023-07-29T00:03:33;100650;;;24.4;53.6
77954;BME280;67151;52.544;6.034;2023-07-29T00:03:48;100650;;;24.4;53.6
77954;BME280;67151;52.544;6.034;2023-07-29T00:04:03;100650;;;24.4;53.6
77954;BME280;67151;52.544;6.034;2023-07-29T00:04:18;100650;;;24.4;53.7
77954;BME280;67151;52.544;6.034;2023-07-29T00:04:33;100650;;;24.4;53.6
77954;BME280;67151;52.544;6.034;2023-07-29T00:04:48;100640;;;24.4;53.7
77954;BME280;67151;52.544;6.034;2023-07-29T00:05:03;100640;;;24.4;53.7
77954;BME280;67151;52.544;6.034;2023-07-29T00:05:18;100640;;;24.4;53.7
77954;BME280;67151;52.544;6.034;2023-07-29T00:05:33;100640;;;24.4;53.6
77954;BME280;67151;52.544;6.034;2023-07-29T00:05:48;100640;;;24.4;53.7
77954;BME280;67151;52.544;6.034;2023-07-29T00:06:03;100650;;;24.4;53.7
77954;BME280;67151;52.544;6.034;2023-07-29T00:06:18;100640;;;24.4;53.6
77954;BME280;67151;52.544;6.034;2023-07-29T00:06:33;100640;;;24.4;53.6
77954;BME280;67151;52.544;6.034;2023-07-29T00:06:48;100640;;;24.4;53.6
77954;BME280;67151;52.544;6.034;2023-07-29T00:07:03;100640;;;24.4;53.6
77954;BME280;67151;52.544;6.034;2023-07-29T00:07:18;100640;;;24.4;53.7
77954;BME280;67151;52.544;6.034;2023-07-29T00:07:33;100640;;;24.4;53.7
77954;BME280;67151;52.544;6.034;2023-07-29T00:07:48;100630;;;24.4;53.6
77954;BME280;67151;52.544;6.034;2023-07-29T00:08:03;100640;;;24.4;53.6
77954;BME280;67151;52.544;6.034;2023-07-29T00:08:18;100630;;;24.3;53.7
77954;BME280;67151;52.544;6.034;2023-07-29T00:08:33;100630;;;24.4;53.6
77954;BME280;67151;52.544;6.034;2023-07-29T00:08:48;100640;;;24.4;53.6
77954;BME280;67151;52.544;6.034;2023-07-29T00:09:03;100630;;;24.4;53.6
77954;BME280;67151;52.544;6.034;2023-07-29T00:09:18;100630;;;24.4;53.6
77954;BME280;67151;52.544;6.034;2023-07-29T00:09:33;100640;;;24.4;53.7
77954;BME280;67151;52.544;6.034;2023-07-29T00:09:48;100630;;;24.4;53.6
77954;BME280;67151;52.544;6.034;2023-07-29T00:10:03;100630;;;24.4;53.6
77954;BME280;67151;52.544;6.034;2023-07-29T00:10:18;100640;;;24.4;53.7
77954;BME280;67151;52.544;6.034;2023-07-29T00:10:35;100630;;;24.4;53.6
77954;BME280;67151;52.544;6.034;2023-07-29T00:10:48;100630;;;24.4;53.7
77954;BME280;67151;52.544;6.034;2023-07-29T00:11:03;100630;;;24.4;53.7
77954;BME280;67151;52.544;6.034;2023-07-29T00:11:18;100630;;;24.4;53.7
77954;BME280;67151;52.544;6.034;2023-07-29T00:11:33;100630;;;24.3;53.7
77954;BME280;67151;52.544;6.034;2023-07-29T00:11:48;100630;;;24.3;53.7
77954;BME280;67151;52.544;6.034;2023-07-29T00:12:03;100630;;;24.3;53.7
77954;BME280;67151;52.544;6.034;2023-07-29T00:12:18;100630;;;24.3;53.7
77954;BME280;67151;52.544;6.034;2023-07-29T00:12:33;100630;;;24.4;53.6
77954;BME280;67151;52.544;6.034;2023-07-29T00:12:48;100630;;;24.3;53.7
77954;BME280;67151;52.544;6.034;2023-07-29T00:13:03;100630;;;24.3;53.6
77954;BME280;67151;52.544;6.034;2023-07-29T00:13:18;100630;;;24.3;53.7
77954;BME280;67151;52.544;6.034;2023-07-29T00:13:33;100630;;;24.4;53.7
77954;BME280;67151;52.544;6.034;2023-07-29T00:13:48;100630;;;24.3;53.7
77954;BME280;67151;52.544;6.034;2023-07-29T00:14:03;100630;;;24.3;53.7
77954;BME280;67151;52.544;6.034;2023-07-29T00:14:18;100630;;;24.3;53.7
77954;BME280;67151;52.544;6.034;2023-07-29T00:14:33;100640;;;24.4;53.6
77954;BME280;67151;52.544;6.034;2023-07-29T00:14:48;100630;;;24.4;53.6
77954;BME280;67151;52.544;6.034;2023-07-29T00:15:03;100630;;;24.4;53.6
77954;BME280;67151;52.544;6.034;2023-07-29T00:15:18;100620;;;24.4;53.6
77954;BME280;67151;52.544;6.034;2023-07-29T00:15:33;100630;;;24.4;53.6
77954;BME280;67151;52.544;6.034;2023-07-29T00:15:48;100630;;;24.4;53.6
77954;BME280;67151;52.544;6.034;2023-07-29T00:16:03;100630;;;24.4;53.6
77954;BME280;67151;52.544;6.034;2023-07-29T00:16:18;100630;;;24.4;53.6
77954;BME280;67151;52.544;6.034;2023-07-29T00:16:33;100630;;;24.3;53.6
77954;BME280;67151;52.544;6.034;2023-07-29T00:16:48;100630;;;24.4;53.6
77954;BME280;67151;52.544;6.034;2023-07-29T00:17:03;100630;;;24.4;53.6
77954;BME280;67151;52.544;6.034;2023-07-29T00:17:18;100630;;;24.4;53.6
77954;BME280;67151;52.544;6.034;2023-07-29T00:17:33;100630;;;24.4;53.5
77954;BME280;67151;52.544;6.034;2023-07-29T00:17:48;100630;;;24.4;53.6
77954;BME280;67151;52.544;6.034;2023-07-29T00:18:03;100620;;;24.4;53.6
77954;BME280;67151;52.544;6.034;2023-07-29T00:18:18;100630;;;24.4;53.6
77954;BME280;67151;52.544;6.034;2023-07-29T00:18:33;100640;;;24.4;53.6
77954;BME280;67151;52.544;6.034;2023-07-29T00:18:48;100630;;;24.4;53.6
77954;BME280;67151;52.544;6.034;2023-07-29T00:19:03;100630;;;24.4;53.6
77954;BME280;67151;52.544;6.034;2023-07-29T00:19:18;100630;;;24.4;53.6
77954;BME280;67151;52.544;6.034;2023-07-29T00:19:33;100630;;;24.4;53.6
77954;BME280;67151;52.544;6.034;2023-07-29T00:19:48;100630;;;24.3;53.6
77954;BME280;67151;52.544;6.034;2023-07-29T00:20:03;100630;;;24.3;53.6
77954;BME280;67151;52.544;6.034;2023-07-29T00:20:18;100630;;;24.4;53.6
77954;BME280;67151;52.544;6.034;2023-07-29T00:20:33;100630;;;24.4;53.6
77954;BME280;67151;52.544;6.034;2023-07-29T00:20:48;100630;;;24.4;53.6
77954;BME280;67151;52.544;6.034;2023-07-29T00:21:03;100620;;;24.4;53.5
77954;BME280;67151;52.544;6.034;2023-07-29T00:21:18;100630;;;24.4;53.6
77954;BME280;67151;52.544;6.034;2023-07-29T00:21:33;100630;;;24.4;53.6
77954;BME280;67151;52.544;6.034;2023-07-29T00:21:48;100620;;;24.4;53.6
77954;BME280;67151;52.544;6.034;2023-07-29T00:22:03;100630;;;24.4;53.6
77954;BME280;67151;52.544;6.034;2023-07-29T00:22:18;100630;;;24.4;53.5
77954;BME280;67151;52.544;6.034;2023-07-29T00:22:33;100630;;;24.4;53.5
77954;BME280;67151;52.544;6.034;2023-07-29T00:22:48;100630;;;24.4;53.6
77954;BME280;67151;52.544;6.034;2023-07-29T00:23:03;100630;;;24.4;53.4
77954;BME280;67151;52.544;6.034;2023-07-29T00:23:18;100630;;;24.4;53.4
77954;BME280;67151;52.544;6.034;2023-07-29T00:23:33;100630;;;24.4;53.5
77954;BME280;67151;52.544;6.034;2023-07-29T00:23:48;100630;;;24.4;53.5
77954;BME280;67151;52.544;6.034;2023-07-29T00:24:03;100620;;;24.4;53.5
77954;BME280;67151;52.544;6.034;2023-07-29T00:24:18;100630;;;24.4;53.5
77954;BME280;67151;52.544;6.034;2023-07-29T00:24:33;100630;;;24.4;53.4
77954;BME280;67151;52.544;6.034;2023-07-29T00:24:50;100620;;;24.4;53.4
77954;BME280;67151;52.544;6.034;2023-07-29T00:25:03;100640;;;24.4;53.3
77954;BME280;67151;52.544;6.034;2023-07-29T00:25:18;100630;;;24.4;53.4
77954;BME280;67151;52.544;6.034;2023-07-29T00:25:33;100630;;;24.5;53.4
77954;BME280;67151;52.544;6.034;2023-07-29T00:25:48;100630;;;24.4;53.3
77954;BME280;67151;52.544;6.034;2023-07-29T00:26:03;100630;;;24.5;53.4
77954;BME280;67151;52.544;6.034;2023-07-29T00:26:18;100630;;;24.5;53.3
77954;BME280;67151;52.544;6.034;2023-07-29T00:26:33;100630;;;24.5;53.3
77954;BME280;67151;52.544;6.034;2023-07-29T00:26:48;100630;;;24.5;53.2
77954;BME280;67151;52.544;6.034;2023-07-29T00:27:03;100630;;;24.5;53.3
77954;BME280;67151;52.544;6.034;2023-07-29T00:27:18;100630;;;24.5;53.2
77954;BME280;67151;52.544;6.034;2023-07-29T00:27:33;100630;;;24.5;53.3
77954;BME280;67151;52.544;6.034;2023-07-29T00:27:48;100630;;;24.5;53.3
77954;BME280;67151;52.544;6.034;2023-07-29T00:28:03;100630;;;24.5;53.1
77954;BME280;67151;52.544;6.034;2023-07-29T00:28:18;100630;;;24.5;53.2
77954;BME280;67151;52.544;6.034;2023-07-29T00:28:33;100630;;;24.5;53.2
77954;BME280;67151;52.544;6.034;2023-07-29T00:28:48;100630;;;24.5;53.2
77954;BME280;67151;52.544;6.034;2023-07-29T00:29:03;100630;;;24.5;53.1
77954;BME280;67151;52.544;6.034;2023-07-29T00:29:18;100630;;;24.5;53.1
77954;BME280;67151;52.544;6.034;2023-07-29T00:29:33;100630;;;24.5;53.1
77954;BME280;67151;52.544;6.034;2023-07-29T00:29:48;100630;;;24.5;53.1
77954;BME280;67151;52.544;6.034;2023-07-29T00:30:03;100640;;;24.5;53.1
77954;BME280;67151;52.544;6.034;2023-07-29T00:30:18;100630;;;24.5;53.1
77954;BME280;67151;52.544;6.034;2023-07-29T00:30:33;100630;;;24.5;53.1
77954;BME280;67151;52.544;6.034;2023-07-29T00:30:48;100640;;;24.5;53.1
77954;BME280;67151;52.544;6.034;2023-07-29T00:31:03;100630;;;24.5;53.1
77954;BME280;67151;52.544;6.034;2023-07-29T00:31:18;100630;;;24.5;53.1
77954;BME280;67151;52.544;6.034;2023-07-29T00:31:33;100620;;;24.5;53.1
77954;BME280;67151;52.544;6.034;2023-07-29T00:31:48;100630;;;24.5;53.1
77954;BME280;67151;52.544;6.034;2023-07-29T00:32:03;100630;;;24.5;53.1
77954;BME280;67151;52.544;6.034;2023-07-29T00:32:18;100630;;;24.5;53.1
77954;BME280;67151;52.544;6.034;2023-07-29T00:32:35;100620;;;24.5;53.1
77954;BME280;67151;52.544;6.034;2023-07-29T00:32:48;100630;;;24.5;53
77954;BME280;67151;52.544;6.034;2023-07-29T00:33:03;100630;;;24.5;53
77954;BME280;67151;52.544;6.034;2023-07-29T00:33:18;100620;;;24.5;52.9
77954;BME280;67151;52.544;6.034;2023-07-29T00:33:33;100620;;;24.5;53
77954;BME280;67151;52.544;6.034;2023-07-29T00:33:50;100610;;;24.5;53
77954;BME280;67151;52.544;6.034;2023-07-29T00:34:03;100620;;;24.5;53
77954;BME280;67151;52.544;6.034;2023-07-29T00:34:18;100620;;;24.6;52.9
77954;BME280;67151;52.544;6.034;2023-07-29T00:34:33;100610;;;24.5;52.9
77954;BME280;67151;52.544;6.034;2023-07-29T00:34:48;100620;;;24.6;52.9
77954;BME280;67151;52.544;6.034;2023-07-29T00:35:03;100620;;;24.6;53
77954;BME280;67151;52.544;6.034;2023-07-29T00:35:18;100620;;;24.5;53
77954;BME280;67151;52.544;6.034;2023-07-29T00:35:33;100620;;;24.5;53
77954;BME280;67151;52.544;6.034;2023-07-29T00:35:48;100620;;;24.6;53
77954;BME280;67151;52.544;6.034;2023-07-29T00:36:03;100620;;;24.5;53
77954;BME280;67151;52.544;6.034;2023-07-29T00:36:18;100620;;;24.5;53
77954;BME280;67151;52.544;6.034;2023-07-29T00:36:33;100620;;;24.5;53
77954;BME280;67151;52.544;6.034;2023-07-29T00:36:48;100620;;;24.6;53
77954;BME280;67151;52.544;6.034;2023-07-29T00:37:03;100620;;;24.6;53
77954;BME280;67151;52.544;6.034;2023-07-29T00:37:18;100620;;;24.6;52.9
77954;BME280;67151;52.544;6.034;2023-07-29T00:37:33;100620;;;24.6;52.8
77954;BME280;67151;52.544;6.034;2023-07-29T00:37:48;100620;;;24.6;52.8
77954;BME280;67151;52.544;6.034;2023-07-29T00:38:03;100630;;;24.6;52.9
77954;BME280;67151;52.544;6.034;2023-07-29T00:38:18;100630;;;24.6;52.9
77954;BME280;67151;52.544;6.034;2023-07-29T00:38:33;100620;;;24.6;52.9
77954;BME280;67151;52.544;6.034;2023-07-29T00:38:48;100620;;;24.6;52.9
77954;BME280;67151;52.544;6.034;2023-07-29T00:39:03;100620;;;24.6;52.9
77954;BME280;67151;52.544;6.034;2023-07-29T00:39:18;100620;;;24.6;52.9
77954;BME280;67151;52.544;6.034;2023-07-29T00:39:33;100630;;;24.6;52.9
77954;BME280;67151;52.544;6.034;2023-07-29T00:39:48;100620;;;24.6;52.9
77954;BME280;67151;52.544;6.034;2023-07-29T00:40:03;100630;;;24.6;52.9
77954;BME280;67151;52.544;6.034;2023-07-29T00:40:19;100620;;;24.6;52.9
77954;BME280;67151;52.544;6.034;2023-07-29T00:40:35;100630;;;24.6;52.9
77954;BME280;67151;52.544;6.034;2023-07-29T00:40:48;100620;;;24.6;52.9
77954;BME280;67151;52.544;6.034;2023-07-29T00:41:03;100620;;;24.6;52.9
77954;BME280;67151;52.544;6.034;2023-07-29T00:41:18;100630;;;24.6;52.9
77954;BME280;67151;52.544;6.034;2023-07-29T00:41:33;100620;;;24.6;52.9
77954;BME280;67151;52.544;6.034;2023-07-29T00:41:48;100620;;;24.6;52.9
77954;BME280;67151;52.544;6.034;2023-07-29T00:42:03;100620;;;24.6;52.9
77954;BME280;67151;52.544;6.034;2023-07-29T00:42:18;100620;;;24.6;52.9
77954;BME280;67151;52.544;6.034;2023-07-29T00:42:33;100630;;;24.6;52.8
77954;BME280;67151;52.544;6.034;2023-07-29T00:42:48;100630;;;24.6;52.8
77954;BME280;67151;52.544;6.034;2023-07-29T00:43:03;100620;;;24.6;52.9
77954;BME280;67151;52.544;6.034;2023-07-29T00:43:18;100620;;;24.6;52.9
77954;BME280;67151;52.544;6.034;2023-07-29T00:43:33;100620;;;24.6;52.8
77954;BME280;67151;52.544;6.034;2023-07-29T00:43:48;100630;;;24.6;52.8
77954;BME280;67151;52.544;6.034;2023-07-29T00:44:03;100620;;;24.6;52.8
77954;BME280;67151;52.544;6.034;2023-07-29T00:44:18;100630;;;24.6;52.9
77954;BME280;67151;52.544;6.034;2023-07-29T00:44:33;100620;;;24.6;52.8
77954;BME280;67151;52.544;6.034;2023-07-29T00:44:48;100620;;;24.6;52.8
77954;BME280;67151;52.544;6.034;2023-07-29T00:45:03;100620;;;24.6;52.9
77954;BME280;67151;52.544;6.034;2023-07-29T00:45:18;100620;;;24.6;52.9
77954;BME280;67151;52.544;6.034;2023-07-29T00:45:33;100620;;;24.6;52.8
77954;BME280;67151;52.544;6.034;2023-07-29T00:45:48;100620;;;24.6;52.8
77954;BME280;67151;52.544;6.034;2023-07-29T00:46:03;100610;;;24.6;52.9
77954;BME280;67151;52.544;6.034;2023-07-29T00:46:18;100610;;;24.6;52.9
77954;BME280;67151;52.544;6.034;2023-07-29T00:46:33;100610;;;24.6;52.9
77954;BME280;67151;52.544;6.034;2023-07-29T00:46:48;100610;;;24.6;52.9
77954;BME280;67151;52.544;6.034;2023-07-29T00:47:03;100610;;;24.6;52.9
77954;BME280;67151;52.544;6.034;2023-07-29T00:47:18;100620;;;24.6;52.8
77954;BME280;67151;52.544;6.034;2023-07-29T00:47:33;100610;;;24.6;52.9
77954;BME280;67151;52.544;6.034;2023-07-29T00:47:48;100610;;;24.6;52.8
77954;BME280;67151;52.544;6.034;2023-07-29T00:48:03;100610;;;24.6;52.7
77954;BME280;67151;52.544;6.034;2023-07-29T00:48:18;100600;;;24.6;52.8
77954;BME280;67151;52.544;6.034;2023-07-29T00:48:33;100610;;;24.6;52.8
77954;BME280;67151;52.544;6.034;2023-07-29T00:48:48;100610;;;24.6;52.9
77954;BME280;67151;52.544;6.034;2023-07-29T00:49:03;100620;;;24.6;52.8
77954;BME280;67151;52.544;6.034;2023-07-29T00:49:18;100620;;;24.6;52.8
77954;BME280;67151;52.544;6.034;2023-07-29T00:49:33;100620;;;24.6;52.8
77954;BME280;67151;52.544;6.034;2023-07-29T00:49:48;100610;;;24.6;52.8
77954;BME280;67151;52.544;6.034;2023-07-29T00:50:03;100610;;;24.6;52.8
77954;BME280;67151;52.544;6.034;2023-07-29T00:50:18;100610;;;24.6;52.8
77954;BME280;67151;52.544;6.034;2023-07-29T00:50:33;100610;;;24.6;52.8
77954;BME280;67151;52.544;6.034;2023-07-29T00:50:48;100610;;;24.6;52.8
77954;BME280;67151;52.544;6.034;2023-07-29T00:51:03;100620;;;24.6;52.8
77954;BME280;67151;52.544;6.034;2023-07-29T00:51:18;100620;;;24.6;52.8
77954;BME280;67151;52.544;6.034;2023-07-29T00:51:33;100610;;;24.6;52.8
77954;BME280;67151;52.544;6.034;2023-07-29T00:51:48;100620;;;24.6;52.8
77954;BME280;67151;52.544;6.034;2023-07-29T00:52:03;100620;;;24.6;52.8
77954;BME280;67151;52.544;6.034;2023-07-29T00:52:18;100610;;;24.6;52.8
77954;BME280;67151;52.544;6.034;2023-07-29T00:52:33;100610;;;24.6;52.8
77954;BME280;67151;52.544;6.034;2023-07-29T00:52:48;100610;;;24.6;52.8
77954;BME280;67151;52.544;6.034;2023-07-29T00:53:03;100610;;;24.6;52.8
77954;BME280;67151;52.544;6.034;2023-07-29T00:53:18;100620;;;24.6;52.7
77954;BME280;67151;52.544;6.034;2023-07-29T00:53:33;100620;;;24.6;52.8
77954;BME280;67151;52.544;6.034;2023-07-29T00:53:48;100620;;;24.6;52.7
77954;BME280;67151;52.544;6.034;2023-07-29T00:54:03;100620;;;24.6;52.7
77954;BME280;67151;52.544;6.034;2023-07-29T00:54:18;100610;;;24.6;52.7
77954;BME280;67151;52.544;6.034;2023-07-29T00:54:33;100610;;;24.6;52.8
77954;BME280;67151;52.544;6.034;2023-07-29T00:54:48;100610;;;24.6;52.8
77954;BME280;67151;52.544;6.034;2023-07-29T00:55:03;100610;;;24.6;52.8
77954;BME280;67151;52.544;6.034;2023-07-29T00:55:18;100610;;;24.6;52.8
77954;BME280;67151;52.544;6.034;2023-07-29T00:55:33;100610;;;24.6;52.8
77954;BME280;67151;52.544;6.034;2023-07-29T00:55:48;100620;;;24.6;52.8
77954;BME280;67151;52.544;6.034;2023-07-29T00:56:03;100610;;;24.6;52.8
77954;BME280;67151;52.544;6.034;2023-07-29T00:56:18;100620;;;24.6;52.8
77954;BME280;67151;52.544;6.034;2023-07-29T00:56:33;100620;;;24.6;52.8
77954;BME280;67151;52.544;6.034;2023-07-29T00:56:48;100620;;;24.6;52.9
77954;BME280;67151;52.544;6.034;2023-07-29T00:57:03;100610;;;24.6;52.8
77954;BME280;67151;52.544;6.034;2023-07-29T00:57:18;100610;;;24.6;52.8
77954;BME280;67151;52.544;6.034;2023-07-29T00:57:33;100610;;;24.6;52.8
77954;BME280;67151;52.544;6.034;2023-07-29T00:57:48;100610;;;24.6;52.8
77954;BME280;67151;52.544;6.034;2023-07-29T00:58:03;100610;;;24.6;52.8
77954;BME280;67151;52.544;6.034;2023-07-29T00:58:18;100620;;;24.6;52.8
77954;BME280;67151;52.544;6.034;2023-07-29T00:58:33;100610;;;24.6;52.8
77954;BME280;67151;52.544;6.034;2023-07-29T00:58:48;100610;;;24.6;52.8
77954;BME280;67151;52.544;6.034;2023-07-29T00:59:03;100610;;;24.6;52.8
77954;BME280;67151;52.544;6.034;2023-07-29T00:59:18;100620;;;24.6;52.7
77954;BME280;67151;52.544;6.034;2023-07-29T00:59:33;100610;;;24.6;52.7
77954;BME280;67151;52.544;6.034;2023-07-29T00:59:48;100610;;;24.6;52.7
77954;BME280;67151;52.544;6.034;2023-07-29T01:00:03;100600;;;24.6;52.7
77954;BME280;67151;52.544;6.034;2023-07-29T01:00:18;100610;;;24.6;52.8
77954;BME280;67151;52.544;6.034;2023-07-29T01:00:33;100620;;;24.6;52.8
77954;BME280;67151;52.544;6.034;2023-07-29T01:00:48;100610;;;24.6;52.8
77954;BME280;67151;52.544;6.034;2023-07-29T01:01:03;100610;;;24.6;52.7
77954;BME280;67151;52.544;6.034;2023-07-29T01:01:18;100610;;;24.6;52.8
77954;BME280;67151;52.544;6.034;2023-07-29T01:01:33;100610;;;24.6;52.8
77954;BME280;67151;52.544;6.034;2023-07-29T01:01:48;100620;;;24.6;52.8
77954;BME280;67151;52.544;6.034;2023-07-29T01:02:03;100620;;;24.6;52.8
77954;BME280;67151;52.544;6.034;2023-07-29T01:02:18;100610;;;24.6;52.7
77954;BME280;67151;52.544;6.034;2023-07-29T01:02:33;100610;;;24.6;52.7
77954;BME280;67151;52.544;6.034;2023-07-29T01:02:48;100610;;;24.6;52.8
77954;BME280;67151;52.544;6.034;2023-07-29T01:03:03;100610;;;24.6;52.9
77954;BME280;67151;52.544;6.034;2023-07-29T01:03:18;100610;;;24.6;52.8
77954;BME280;67151;52.544;6.034;2023-07-29T01:03:33;100600;;;24.6;52.8
77954;BME280;67151;52.544;6.034;2023-07-29T01:03:48;100610;;;24.6;52.8
77954;BME280;67151;52.544;6.034;2023-07-29T01:04:03;100600;;;24.6;52.8
77954;BME280;67151;52.544;6.034;2023-07-29T01:04:18;100610;;;24.6;52.7
77954;BME280;67151;52.544;6.034;2023-07-29T01:04:33;100610;;;24.6;52.7
77954;BME280;67151;52.544;6.034;2023-07-29T01:04:51;100610;;;24.6;52.8
77954;BME280;67151;52.544;6.034;2023-07-29T01:05:03;100610;;;24.6;52.8
77954;BME280;67151;52.544;6.034;2023-07-29T01:05:18;100610;;;24.6;52.8
77954;BME280;67151;52.544;6.034;2023-07-29T01:05:35;100600;;;24.6;52.7
77954;BME280;67151;52.544;6.034;2023-07-29T01:05:50;100610;;;24.6;52.8
77954;BME280;67151;52.544;6.034;2023-07-29T01:06:06;100610;;;24.6;52.8
77954;BME280;67151;52.544;6.034;2023-07-29T01:06:18;100600;;;24.6;52.8
77954;BME280;67151;52.544;6.034;2023-07-29T01:06:34;100610;;;24.6;52.9
77954;BME280;67151;52.544;6.034;2023-07-29T01:06:50;100600;;;24.6;52.9
77954;BME280;67151;52.544;6.034;2023-07-29T01:07:03;100600;;;24.6;52.9
77954;BME280;67151;52.544;6.034;2023-07-29T01:07:19;100610;;;24.6;52.8
77954;BME280;67151;52.544;6.034;2023-07-29T01:07:33;100610;;;24.6;52.9
77954;BME280;67151;52.544;6.034;2023-07-29T01:07:49;100610;;;24.6;52.9
77954;BME280;67151;52.544;6.034;2023-07-29T01:08:04;100610;;;24.6;52.8
77954;BME280;67151;52.544;6.034;2023-07-29T01:08:20;100600;;;24.6;52.9
77954;BME280;67151;52.544;6.034;2023-07-29T01:08:34;100610;;;24.6;52.9
77954;BME280;67151;52.544;6.034;2023-07-29T01:08:50;100600;;;24.6;52.9
77954;BME280;67151;52.544;6.034;2023-07-29T01:09:03;100600;;;24.6;52.8
77954;BME280;67151;52.544;6.034;2023-07-29T01:09:20;100600;;;24.6;52.8
77954;BME280;67151;52.544;6.034;2023-07-29T01:09:33;100600;;;24.6;52.7
77954;BME280;67151;52.544;6.034;2023-07-29T01:09:50;100600;;;24.6;52.8
77954;BME280;67151;52.544;6.034;2023-07-29T01:10:03;100610;;;24.6;52.8
77954;BME280;67151;52.544;6.034;2023-07-29T01:10:19;100600;;;24.6;52.8
77954;BME280;67151;52.544;6.034;2023-07-29T01:10:36;100600;;;24.6;52.8
77954;BME280;67151;52.544;6.034;2023-07-29T01:10:51;100600;;;24.6;52.8
77954;BME280;67151;52.544;6.034;2023-07-29T01:11:03;100600;;;24.6;52.7
77954;BME280;67151;52.544;6.034;2023-07-29T01:11:22;100590;;;24.6;52.8
77954;BME280;67151;52.544;6.034;2023-07-29T01:11:36;100600;;;24.6;52.8
77954;BME280;67151;52.544;6.034;2023-07-29T01:11:48;100600;;;24.6;52.9
77954;BME280;67151;52.544;6.034;2023-07-29T01:12:06;100600;;;24.6;52.9
77954;BME280;67151;52.544;6.034;2023-07-29T01:12:19;100590;;;24.6;52.9
77954;BME280;67151;52.544;6.034;2023-07-29T01:12:35;100600;;;24.6;52.8
77954;BME280;67151;52.544;6.034;2023-07-29T01:12:49;100590;;;24.6;52.8
77954;BME280;67151;52.544;6.034;2023-07-29T01:13:05;100600;;;24.6;52.8
77954;BME280;67151;52.544;6.034;2023-07-29T01:13:19;100590;;;24.6;52.8
77954;BME280;67151;52.544;6.034;2023-07-29T01:13:35;100600;;;24.6;52.8
77954;BME280;67151;52.544;6.034;2023-07-29T01:13:49;100600;;;24.6;52.8
77954;BME280;67151;52.544;6.034;2023-07-29T01:14:04;100590;;;24.6;52.9
77954;BME280;67151;52.544;6.034;2023-07-29T01:14:19;100590;;;24.6;52.8
77954;BME280;67151;52.544;6.034;2023-07-29T01:14:34;100590;;;24.6;52.8
77954;BME280;67151;52.544;6.034;2023-07-29T01:14:51;100600;;;24.6;52.8
77954;BME280;67151;52.544;6.034;2023-07-29T01:15:05;100600;;;24.6;52.8
77954;BME280;67151;52.544;6.034;2023-07-29T01:15:19;100600;;;24.6;52.8
77954;BME280;67151;52.544;6.034;2023-07-29T01:15:33;100600;;;24.6;52.8
77954;BME280;67151;52.544;6.034;2023-07-29T01:15:48;100600;;;24.6;52.7
77954;BME280;67151;52.544;6.034;2023-07-29T01:16:04;100600;;;24.6;52.8
77954;BME280;67151;52.544;6.034;2023-07-29T01:16:19;100590;;;24.6;52.8
77954;BME280;67151;52.544;6.034;2023-07-29T01:16:34;100590;;;24.6;52.8
77954;BME280;67151;52.544;6.034;2023-07-29T01:16:50;100600;;;24.6;52.8
77954;BME280;67151;52.544;6.034;2023-07-29T01:17:03;100590;;;24.6;52.8
77954;BME280;67151;52.544;6.034;2023-07-29T01:17:20;100600;;;24.6;52.8
77954;BME280;67151;52.544;6.034;2023-07-29T01:17:33;100600;;;24.6;52.8
77954;BME280;67151;52.544;6.034;2023-07-29T01:17:49;100590;;;24.6;52.8
77954;BME280;67151;52.544;6.034;2023-07-29T01:18:04;100600;;;24.6;52.8
77954;BME280;67151;52.544;6.034;2023-07-29T01:18:18;100590;;;24.6;52.9
77954;BME280;67151;52.544;6.034;2023-07-29T01:18:33;100600;;;24.6;52.9
77954;BME280;67151;52.544;6.034;2023-07-29T01:18:48;100600;;;24.6;52.9
77954;BME280;67151;52.544;6.034;2023-07-29T01:19:04;100600;;;24.6;52.9
77954;BME280;67151;52.544;6.034;2023-07-29T01:19:20;100600;;;24.6;52.8
77954;BME280;67151;52.544;6.034;2023-07-29T01:19:40;100600;;;24.6;52.8
77954;BME280;67151;52.544;6.034;2023-07-29T01:19:48;100600;;;24.6;52.9
77954;BME280;67151;52.544;6.034;2023-07-29T01:20:04;100600;;;24.6;52.9
77954;BME280;67151;52.544;6.034;2023-07-29T01:20:19;100600;;;24.6;52.9
77954;BME280;67151;52.544;6.034;2023-07-29T01:20:33;100600;;;24.6;52.9
77954;BME280;67151;52.544;6.034;2023-07-29T01:20:48;100600;;;24.5;52.9
77954;BME280;67151;52.544;6.034;2023-07-29T01:21:03;100600;;;24.6;52.8
77954;BME280;67151;52.544;6.034;2023-07-29T01:21:18;100600;;;24.6;52.8
77954;BME280;67151;52.544;6.034;2023-07-29T01:21:33;100600;;;24.6;52.8
77954;BME280;67151;52.544;6.034;2023-07-29T01:21:48;100600;;;24.6;52.8
77954;BME280;67151;52.544;6.034;2023-07-29T01:22:03;100600;;;24.5;52.8
77954;BME280;67151;52.544;6.034;2023-07-29T01:22:18;100600;;;24.6;52.8
77954;BME280;67151;52.544;6.034;2023-07-29T01:22:33;100610;;;24.6;52.9
77954;BME280;67151;52.544;6.034;2023-07-29T01:22:48;100600;;;24.6;52.8
77954;BME280;67151;52.544;6.034;2023-07-29T01:23:03;100600;;;24.5;52.8
77954;BME280;67151;52.544;6.034;2023-07-29T01:23:23;100600;;;24.6;52.8
77954;BME280;67151;52.544;6.034;2023-07-29T01:23:33;100610;;;24.6;52.8
77954;BME280;67151;52.544;6.034;2023-07-29T01:23:51;100600;;;24.6;52.8